Time;durP1;ratioP1;P1;durP2;ratioP2;P2;SDS_P1;SDS_P2;PMS_P1;PMS_P2;Temp;Humidity;BMP_temperature;BMP_pressure;BME280_temperature;BME280_humidity;BME280_pressure;Samples;Min_cycle;Max_cycle;Signal;HPM_P1;HPM_P2
2022/03/23 00:01:55;;;;;;;84.03;60.13;;;7.70;99.90;;;;;;5074797;28;20041;-78
2022/03/23 00:04:21;;;;;;;88.90;64.43;;;7.70;99.90;;;;;;5074360;28;20526;-79
2022/03/23 00:06:47;;;;;;;80.05;59.33;;;7.60;99.90;;;;;;5058485;28;20040;-78
2022/03/23 00:09:14;;;;;;;86.90;58.50;;;7.60;99.90;;;;;;5041480;28;20128;-77
2022/03/23 00:11:41;;;;;;;78.32;59.72;;;7.60;99.90;;;;;;5075348;28;20047;-79
2022/03/23 00:14:07;;;;;;;85.45;66.15;;;7.60;99.90;;;;;;5073999;28;20032;-77
2022/03/23 00:16:36;;;;;;;82.85;62.22;;;7.60;99.90;;;;;;5074248;28;20067;-78
2022/03/23 00:19:07;;;;;;;82.78;61.35;;;7.50;99.90;;;;;;5022420;28;20048;-78
2022/03/23 00:21:32;;;;;;;85.97;64.47;;;7.50;99.90;;;;;;5074413;28;20037;-79
2022/03/23 00:23:58;;;;;;;91.03;65.55;;;7.50;99.90;;;;;;5056752;28;20047;-78
2022/03/23 00:26:24;;;;;;;90.03;65.22;;;7.50;99.90;;;;;;5056228;28;20048;-79
2022/03/23 00:28:50;;;;;;;88.97;65.57;;;7.50;99.90;;;;;;5056801;28;20040;-77
2022/03/23 00:31:15;;;;;;;92.53;65.55;;;7.50;99.90;;;;;;5060513;28;20098;-78
2022/03/23 00:33:41;;;;;;;92.72;66.03;;;7.50;99.90;;;;;;5077775;28;20048;-78
2022/03/23 00:36:09;;;;;;;97.00;67.35;;;7.50;99.90;;;;;;5077834;28;20308;-78
2022/03/23 00:38:35;;;;;;;89.22;63.67;;;7.50;99.90;;;;;;5077679;28;20127;-79
2022/03/23 00:41:00;;;;;;;84.10;63.50;;;7.50;99.90;;;;;;5077366;28;20079;-78
2022/03/23 00:43:26;;;;;;;87.50;63.85;;;7.50;99.90;;;;;;5094765;28;20036;-80
2022/03/23 00:45:51;;;;;;;85.55;61.53;;;7.40;99.90;;;;;;5080266;28;20119;-79
2022/03/23 00:48:17;;;;;;;85.20;58.20;;;7.40;99.90;;;;;;5099055;28;20039;-79
2022/03/23 00:50:43;;;;;;;77.03;58.70;;;7.40;99.90;;;;;;5098807;28;20040;-78
2022/03/23 00:53:08;;;;;;;76.63;56.53;;;7.40;99.90;;;;;;5077162;28;20044;-79
2022/03/23 00:55:34;;;;;;;72.03;53.25;;;7.40;99.90;;;;;;5060801;28;20071;-80
2022/03/23 00:57:59;;;;;;;71.82;52.17;;;7.40;99.90;;;;;;5078368;28;20109;-80
2022/03/23 01:00:25;;;;;;;77.38;55.47;;;7.40;99.90;;;;;;5077519;28;20047;-78
2022/03/23 01:02:50;;;;;;;73.88;54.55;;;7.40;99.90;;;;;;5076737;28;20063;-77
2022/03/23 01:05:16;;;;;;;77.05;54.40;;;7.40;99.90;;;;;;5077638;28;20043;-79
2022/03/23 01:07:43;;;;;;;72.47;52.65;;;7.30;99.90;;;;;;5077367;28;20457;-78
2022/03/23 01:10:12;;;;;;;72.85;51.95;;;7.30;99.90;;;;;;5077060;28;20465;-78
2022/03/23 01:12:44;;;;;;;70.65;52.05;;;7.30;99.90;;;;;;5076668;28;20055;-79
2022/03/23 01:15:11;;;;;;;75.40;51.83;;;7.30;99.90;;;;;;5076623;28;20040;-77
2022/03/23 01:17:38;;;;;;;77.82;54.58;;;7.30;99.90;;;;;;5077013;28;20093;-77
2022/03/23 01:20:09;;;;;;;73.05;53.30;;;7.30;99.90;;;;;;5076774;28;20040;-78
2022/03/23 01:22:39;;;;;;;71.63;52.08;;;7.30;99.90;;;;;;5077184;28;20044;-77
2022/03/23 01:25:05;;;;;;;72.55;53.67;;;7.30;99.90;;;;;;5077015;28;20141;-77
2022/03/23 01:27:31;;;;;;;72.55;52.60;;;7.20;99.90;;;;;;5080350;28;20032;-79
2022/03/23 01:29:57;;;;;;;76.65;55.33;;;7.20;99.90;;;;;;5096924;28;20438;-79
2022/03/23 01:32:22;;;;;;;79.72;58.25;;;7.20;99.90;;;;;;5096758;28;20036;-79
2022/03/23 01:34:48;;;;;;;81.18;57.17;;;7.20;99.90;;;;;;5096805;28;20048;-77
2022/03/23 01:37:14;;;;;;;74.40;54.42;;;7.20;99.90;;;;;;5078999;28;20050;-79
2022/03/23 01:39:40;;;;;;;76.70;55.10;;;7.20;99.90;;;;;;5096876;28;20396;-79
2022/03/23 01:42:06;;;;;;;88.15;61.35;;;7.10;99.90;;;;;;5076470;28;20043;-80
2022/03/23 01:44:32;;;;;;;85.28;58.67;;;7.10;99.90;;;;;;5058718;28;20101;-78
2022/03/23 01:47:09;;;;;;;84.88;59.60;;;7.10;99.90;;;;;;5076444;28;20477;-79
2022/03/23 01:49:36;;;;;;;80.53;58.13;;;7.10;99.90;;;;;;5058968;28;20109;-79
2022/03/23 01:52:05;;;;;;;80.68;60.53;;;7.00;99.90;;;;;;5076319;28;20131;-80
2022/03/23 01:54:30;;;;;;;82.10;58.85;;;7.00;99.90;;;;;;5076289;28;20048;-78
2022/03/23 01:56:57;;;;;;;87.28;61.58;;;7.10;99.90;;;;;;5078448;28;20335;-79
2022/03/23 01:59:23;;;;;;;83.30;61.42;;;7.00;99.90;;;;;;5078254;28;20040;-79
2022/03/23 02:01:49;;;;;;;87.30;63.55;;;7.00;99.90;;;;;;5078728;28;20113;-78
2022/03/23 02:04:16;;;;;;;88.32;63.30;;;7.00;99.90;;;;;;5062272;28;20048;-78
2022/03/23 02:06:41;;;;;;;89.28;63.10;;;6.90;99.90;;;;;;5078652;28;20374;-78
2022/03/23 02:09:07;;;;;;;87.63;63.65;;;7.00;99.90;;;;;;5096118;28;20078;-77
2022/03/23 02:11:33;;;;;;;87.32;62.53;;;6.90;99.90;;;;;;5076327;28;20040;-78
2022/03/23 02:13:59;;;;;;;86.97;63.47;;;6.90;99.90;;;;;;5075675;28;20442;-79
2022/03/23 02:16:24;;;;;;;95.32;66.70;;;6.80;99.90;;;;;;5076042;28;20059;-78
2022/03/23 02:18:50;;;;;;;90.68;63.85;;;6.80;99.90;;;;;;5058264;28;20358;-78
2022/03/23 02:21:18;;;;;;;93.65;64.18;;;6.80;99.90;;;;;;5075755;28;20458;-79
2022/03/23 02:23:44;;;;;;;90.80;66.00;;;6.70;99.90;;;;;;5058243;28;20097;-79
2022/03/23 02:26:11;;;;;;;90.68;64.82;;;6.70;99.90;;;;;;5076002;28;20033;-77
2022/03/23 02:28:36;;;;;;;91.50;65.60;;;6.70;99.90;;;;;;5078199;28;20097;-78
2022/03/23 02:31:04;;;;;;;91.40;64.95;;;6.70;99.90;;;;;;5096397;28;20530;-78
2022/03/23 02:33:30;;;;;;;90.93;66.07;;;6.70;99.90;;;;;;5078124;28;20051;-78
2022/03/23 02:35:55;;;;;;;91.30;65.03;;;6.70;99.90;;;;;;5077735;28;20058;-78
2022/03/23 02:38:21;;;;;;;91.03;63.92;;;6.60;99.90;;;;;;5095933;28;20040;-77
2022/03/23 02:40:48;;;;;;;93.93;67.90;;;6.50;99.90;;;;;;5063319;28;20342;-78
2022/03/23 02:43:14;;;;;;;97.60;67.85;;;6.50;99.90;;;;;;5075412;28;20056;-78
2022/03/23 02:45:40;;;;;;;95.32;66.03;;;6.50;99.90;;;;;;5075638;28;20036;-77
2022/03/23 02:48:06;;;;;;;99.88;69.88;;;6.40;99.90;;;;;;5076097;28;20036;-79
2022/03/23 02:50:33;;;;;;;96.18;69.80;;;6.40;99.90;;;;;;5075845;28;20435;-78
2022/03/23 03:04:15;;;;;;;99.35;69.28;;;6.30;99.90;;;;;;5095188;28;20044;-78
2022/03/23 03:06:41;;;;;;;99.38;67.40;;;6.20;99.90;;;;;;5095266;28;20032;-79
2022/03/23 03:09:06;;;;;;;97.32;69.18;;;6.20;99.90;;;;;;5084493;28;20044;-78
2022/03/23 03:11:32;;;;;;;96.82;70.40;;;6.20;99.90;;;;;;5074716;28;20037;-77
2022/03/23 03:13:58;;;;;;;94.65;67.47;;;6.10;99.90;;;;;;5057673;28;20048;-78
2022/03/23 03:16:23;;;;;;;96.32;67.70;;;6.10;99.90;;;;;;5057376;28;20049;-79
2022/03/23 03:18:49;;;;;;;96.85;68.00;;;6.10;99.90;;;;;;5075178;28;20127;-78
2022/03/23 03:21:16;;;;;;;102.57;70.05;;;6.10;99.90;;;;;;5057320;28;20127;-78
2022/03/23 03:23:42;;;;;;;103.50;71.47;;;6.10;99.90;;;;;;5083539;28;20434;-78
2022/03/23 03:26:09;;;;;;;103.40;67.90;;;6.20;99.90;;;;;;5094961;28;20072;-78
2022/03/23 03:28:36;;;;;;;98.75;68.75;;;6.10;99.90;;;;;;5094974;28;20083;-79
2022/03/23 03:31:03;;;;;;;96.43;67.97;;;6.00;99.90;;;;;;5077151;28;20040;-79
2022/03/23 03:33:29;;;;;;;96.40;67.85;;;6.00;99.90;;;;;;5094925;28;20464;-78
2022/03/23 03:35:54;;;;;;;99.35;67.80;;;6.00;99.90;;;;;;5095187;28;20040;-78
2022/03/23 03:38:20;;;;;;;99.13;68.55;;;5.90;99.90;;;;;;5095334;28;20155;-77
2022/03/23 03:40:46;;;;;;;99.60;67.45;;;5.90;99.90;;;;;;5073033;28;20354;-78
2022/03/23 03:43:12;;;;;;;99.05;67.85;;;5.90;99.90;;;;;;5074684;28;20044;-79
2022/03/23 03:45:38;;;;;;;98.47;69.93;;;5.90;99.90;;;;;;5074477;28;20060;-80
2022/03/23 03:48:04;;;;;;;98.55;67.70;;;5.80;99.90;;;;;;5074683;28;20048;-77
2022/03/23 03:50:29;;;;;;;98.40;67.82;;;5.80;99.90;;;;;;5074659;28;20050;-79
2022/03/23 03:52:55;;;;;;;102.88;69.78;;;5.80;99.90;;;;;;5074892;28;20059;-79
2022/03/23 03:55:20;;;;;;;104.88;70.22;;;5.70;99.90;;;;;;5069374;28;20036;-79
2022/03/23 03:57:47;;;;;;;98.78;69.47;;;5.90;99.90;;;;;;5095139;28;20039;-79
2022/03/23 04:00:14;;;;;;;98.28;68.75;;;5.80;99.90;;;;;;5094849;28;20102;-78
2022/03/23 04:02:40;;;;;;;97.07;68.28;;;5.90;99.90;;;;;;5094671;28;20115;-78
2022/03/23 04:05:06;;;;;;;99.78;70.35;;;5.90;99.90;;;;;;5097076;28;20506;-77
2022/03/23 04:07:34;;;;;;;101.93;72.15;;;5.90;99.90;;;;;;5098522;28;20032;-77
2022/03/23 04:10:04;;;;;;;100.13;68.07;;;6.00;99.90;;;;;;5087196;28;20110;-78
2022/03/23 04:12:29;;;;;;;99.75;71.00;;;6.00;99.90;;;;;;5077965;28;20363;-79
2022/03/23 04:14:55;;;;;;;101.43;69.97;;;6.00;99.90;;;;;;5077980;28;20040;-78
2022/03/23 04:17:20;;;;;;;106.75;71.68;;;6.00;99.90;;;;;;5078330;28;20044;-77
2022/03/23 04:19:46;;;;;;;101.80;71.60;;;6.00;99.90;;;;;;5078170;28;20032;-79
2022/03/23 04:22:12;;;;;;;102.55;72.30;;;6.00;99.90;;;;;;5060666;28;20097;-80
2022/03/23 04:24:38;;;;;;;95.80;68.05;;;5.90;99.90;;;;;;5077786;28;20098;-77
2022/03/23 04:27:04;;;;;;;98.47;67.65;;;5.90;99.90;;;;;;5077835;28;20044;-78
2022/03/23 04:29:29;;;;;;;101.68;68.93;;;5.80;99.90;;;;;;5077859;28;20055;-78
2022/03/23 04:31:55;;;;;;;100.68;66.78;;;5.80;99.90;;;;;;5078153;28;20036;-79
2022/03/23 04:34:21;;;;;;;91.18;65.22;;;5.70;99.90;;;;;;5078118;28;20044;-77
2022/03/23 04:36:46;;;;;;;94.03;65.13;;;5.80;99.90;;;;;;5077425;28;20135;-77
2022/03/23 04:39:12;;;;;;;106.30;68.30;;;5.80;99.90;;;;;;5060240;28;20056;-78
2022/03/23 04:41:37;;;;;;;97.75;68.07;;;5.80;99.90;;;;;;5077665;28;20046;-77
2022/03/23 04:44:03;;;;;;;103.47;69.93;;;5.70;99.90;;;;;;5077565;28;20470;-79
2022/03/23 04:46:28;;;;;;;99.50;69.45;;;5.70;99.90;;;;;;5077393;28;20066;-79
2022/03/23 04:48:54;;;;;;;91.20;63.50;;;5.60;99.90;;;;;;5077628;28;20079;-79
2022/03/23 04:51:20;;;;;;;82.82;59.63;;;5.60;99.90;;;;;;5068637;28;20118;-78
2022/03/23 04:53:46;;;;;;;89.13;63.45;;;5.60;99.90;;;;;;5097482;28;20451;-78
2022/03/23 04:56:12;;;;;;;83.88;60.40;;;5.50;99.90;;;;;;5097713;28;20043;-79
2022/03/23 04:58:37;;;;;;;81.45;56.75;;;5.50;99.90;;;;;;5097409;28;20055;-77
2022/03/23 05:01:03;;;;;;;77.20;56.95;;;5.50;99.90;;;;;;5097324;28;20036;-79
2022/03/23 05:03:29;;;;;;;73.15;55.83;;;5.50;99.90;;;;;;5097721;28;20036;-78
2022/03/23 05:05:54;;;;;;;73.03;54.78;;;5.50;99.90;;;;;;5075110;28;20044;-77
2022/03/23 05:08:20;;;;;;;75.32;54.78;;;5.40;99.90;;;;;;5059857;28;20072;-78
2022/03/23 05:10:45;;;;;;;73.75;52.53;;;5.40;99.90;;;;;;5077181;28;20107;-78
2022/03/23 05:13:11;;;;;;;68.35;49.50;;;5.40;99.90;;;;;;5076797;28;20044;-79
2022/03/23 05:15:37;;;;;;;70.32;52.38;;;5.30;99.90;;;;;;5059002;28;20328;-79
2022/03/23 05:18:05;;;;;;;68.20;50.17;;;5.30;99.90;;;;;;5077315;28;20047;-79
2022/03/23 05:20:30;;;;;;;69.45;48.97;;;5.30;99.90;;;;;;5076811;28;20048;-79
2022/03/23 05:22:56;;;;;;;64.78;48.33;;;5.30;99.90;;;;;;5077111;28;20350;-78
2022/03/23 05:25:22;;;;;;;61.80;45.72;;;5.30;99.90;;;;;;5077221;28;20051;-79
2022/03/23 05:27:48;;;;;;;61.30;45.88;;;5.30;99.90;;;;;;5059026;28;20036;-79
2022/03/23 05:30:14;;;;;;;57.55;45.22;;;5.30;99.90;;;;;;5077335;28;20054;-79
2022/03/23 05:32:40;;;;;;;57.35;44.20;;;5.30;99.90;;;;;;5075460;28;20045;-79
2022/03/23 05:35:08;;;;;;;56.55;44.25;;;5.30;99.90;;;;;;5076375;28;20094;-79
2022/03/23 05:37:33;;;;;;;59.35;44.40;;;5.30;99.90;;;;;;5076843;28;20119;-77
2022/03/23 05:39:59;;;;;;;54.33;42.47;;;5.30;99.90;;;;;;5076681;28;20071;-79
2022/03/23 05:42:25;;;;;;;59.28;44.75;;;5.30;99.90;;;;;;5075941;28;20575;-79
2022/03/23 05:44:50;;;;;;;55.20;43.92;;;5.30;99.90;;;;;;5076534;28;20097;-79
2022/03/23 05:47:16;;;;;;;61.35;45.63;;;5.30;99.90;;;;;;5076039;28;20105;-77
2022/03/23 05:49:41;;;;;;;55.58;44.35;;;5.30;99.90;;;;;;5059075;28;20127;-78
2022/03/23 05:52:07;;;;;;;63.72;46.58;;;5.40;99.90;;;;;;5076208;28;20412;-79
2022/03/23 05:54:32;;;;;;;51.78;41.55;;;5.40;99.90;;;;;;5076405;28;20059;-77
2022/03/23 05:57:02;;;;;;;58.85;45.60;;;5.30;99.90;;;;;;5058211;28;20045;-79
2022/03/23 05:59:30;;;;;;;54.08;43.45;;;5.40;99.90;;;;;;5076019;28;20040;-79
2022/03/23 06:01:57;;;;;;;54.55;43.40;;;5.40;99.90;;;;;;5087786;28;20423;-77
2022/03/23 06:04:22;;;;;;;59.33;47.10;;;5.40;99.90;;;;;;5063174;28;20409;-78
2022/03/23 06:06:48;;;;;;;58.70;44.25;;;5.40;99.90;;;;;;5058324;28;20045;-76
2022/03/23 06:09:13;;;;;;;52.97;41.58;;;5.40;99.90;;;;;;5058851;28;20059;-78
2022/03/23 06:11:39;;;;;;;51.88;42.63;;;5.40;99.90;;;;;;5075741;28;20052;-77
2022/03/23 06:14:05;;;;;;;62.67;44.95;;;5.40;99.90;;;;;;5076066;28;20079;-77
2022/03/23 06:16:31;;;;;;;61.95;44.78;;;5.50;99.90;;;;;;5072092;28;20083;-76
2022/03/23 06:18:59;;;;;;;60.03;45.85;;;5.50;99.90;;;;;;5075471;28;20043;-77
2022/03/23 06:21:24;;;;;;;61.10;45.78;;;5.50;99.90;;;;;;5076179;28;20187;-77
2022/03/23 06:23:50;;;;;;;61.05;45.80;;;5.50;99.90;;;;;;5057951;28;20044;-78
2022/03/23 06:26:16;;;;;;;59.10;45.22;;;5.60;99.90;;;;;;5074970;28;20076;-75
2022/03/23 06:28:42;;;;;;;60.50;46.17;;;5.60;99.90;;;;;;5082257;28;20096;-76
2022/03/23 06:31:08;;;;;;;61.50;46.08;;;5.70;99.90;;;;;;5116087;28;20055;-73
2022/03/23 06:33:33;;;;;;;59.28;45.72;;;5.70;99.90;;;;;;5096308;28;20047;-73
2022/03/23 06:35:59;;;;;;;59.88;44.92;;;5.80;99.90;;;;;;5095555;28;20429;-74
2022/03/23 06:38:24;;;;;;;60.35;46.75;;;5.80;99.90;;;;;;5096048;28;20047;-76
2022/03/23 06:40:50;;;;;;;75.35;51.85;;;5.90;99.90;;;;;;5095101;28;20040;-75
2022/03/23 06:43:15;;;;;;;85.28;58.45;;;6.00;99.90;;;;;;5095459;28;20426;-77
2022/03/23 06:45:42;;;;;;;96.20;63.10;;;6.10;99.90;;;;;;5078340;28;20040;-77
2022/03/23 06:48:08;;;;;;;91.68;66.15;;;6.20;99.90;;;;;;5093792;28;20032;-78
2022/03/23 06:50:34;;;;;;;95.07;66.32;;;6.30;99.90;;;;;;5095499;28;20042;-80
2022/03/23 06:53:00;;;;;;;97.38;68.80;;;6.30;99.90;;;;;;5077326;28;20055;-78
2022/03/23 06:55:26;;;;;;;104.43;69.18;;;6.40;99.90;;;;;;5094740;28;20048;-78
2022/03/23 06:57:51;;;;;;;102.57;68.90;;;6.50;99.90;;;;;;5095714;28;20450;-76
2022/03/23 07:00:17;;;;;;;107.28;70.38;;;6.60;99.90;;;;;;5077497;28;20441;-77
2022/03/23 07:02:44;;;;;;;105.65;73.78;;;6.70;99.90;;;;;;5085023;28;20036;-78
2022/03/23 07:05:11;;;;;;;102.45;70.68;;;6.80;99.90;;;;;;5075140;28;20044;-78
2022/03/23 07:07:37;;;;;;;100.38;70.15;;;6.90;99.90;;;;;;5074998;28;20391;-78
2022/03/23 07:10:04;;;;;;;101.03;69.90;;;6.90;99.90;;;;;;5057119;28;20449;-82
2022/03/23 07:12:30;;;;;;;98.25;70.22;;;7.00;99.90;;;;;;5075358;28;20051;-77
2022/03/23 07:14:56;;;;;;;103.28;69.18;;;7.10;99.90;;;;;;5058020;28;20352;-79
2022/03/23 07:17:23;;;;;;;97.47;70.93;;;7.20;99.90;;;;;;5080204;28;20044;-79
2022/03/23 07:19:49;;;;;;;99.93;70.22;;;7.30;99.90;;;;;;5095273;28;20166;-80
2022/03/23 07:22:15;;;;;;;98.57;68.70;;;7.40;99.90;;;;;;5077522;28;20043;-80
2022/03/23 07:24:41;;;;;;;91.25;67.00;;;7.50;99.90;;;;;;5077421;28;20043;-78
2022/03/23 07:27:08;;;;;;;101.25;68.57;;;7.50;99.90;;;;;;5095239;28;20338;-81
2022/03/23 07:29:35;;;;;;;92.38;65.35;;;7.60;99.90;;;;;;5095082;28;20036;-76
2022/03/23 07:32:00;;;;;;;93.07;67.25;;;7.70;99.90;;;;;;5073930;28;20083;-79
2022/03/23 07:34:26;;;;;;;93.05;64.82;;;7.70;99.90;;;;;;5075057;28;20072;-78
2022/03/23 07:36:52;;;;;;;90.07;66.22;;;7.80;99.90;;;;;;5074573;28;20037;-77
2022/03/23 07:39:20;;;;;;;89.18;64.82;;;7.90;99.90;;;;;;5059989;28;20512;-77
2022/03/23 07:41:50;;;;;;;88.15;66.20;;;8.00;99.90;;;;;;5061876;28;20048;-79
2022/03/23 07:44:18;;;;;;;88.60;65.57;;;8.10;99.90;;;;;;5043594;28;20370;-76
2022/03/23 07:46:44;;;;;;;90.35;65.32;;;8.10;99.90;;;;;;5075917;28;20047;-77
2022/03/23 07:49:10;;;;;;;90.90;64.85;;;8.20;99.90;;;;;;5063720;28;20094;-78
2022/03/23 07:51:35;;;;;;;88.68;63.63;;;8.30;99.90;;;;;;5098933;28;20036;-77
2022/03/23 07:54:01;;;;;;;87.10;61.05;;;8.40;99.90;;;;;;5098537;28;20048;-77
2022/03/23 07:56:26;;;;;;;86.88;62.17;;;8.50;99.90;;;;;;5098838;28;20105;-77
2022/03/23 07:58:52;;;;;;;94.38;62.97;;;8.50;99.90;;;;;;5098962;28;20115;-78
2022/03/23 08:01:18;;;;;;;86.72;61.03;;;8.60;99.90;;;;;;5076929;28;20049;-80
2022/03/23 08:03:43;;;;;;;85.18;61.97;;;8.60;99.90;;;;;;5078706;28;20036;-77
2022/03/23 08:06:09;;;;;;;83.72;62.03;;;8.80;99.90;;;;;;5061193;28;20036;-76
2022/03/23 08:08:34;;;;;;;93.63;64.85;;;8.80;99.90;;;;;;5079933;28;20040;-79
2022/03/23 08:11:00;;;;;;;93.03;64.93;;;8.90;99.90;;;;;;5076672;28;20040;-78
2022/03/23 08:13:25;;;;;;;91.53;61.20;;;9.00;99.90;;;;;;5078852;28;20044;-77
2022/03/23 08:15:51;;;;;;;89.43;63.42;;;9.10;99.90;;;;;;5077976;28;20037;-78
2022/03/23 08:18:21;;;;;;;84.50;60.60;;;9.10;99.90;;;;;;5078009;28;20415;-78
2022/03/23 08:20:47;;;;;;;83.85;58.45;;;9.20;99.90;;;;;;5077956;28;20052;-78
2022/03/23 08:23:15;;;;;;;84.35;56.30;;;9.30;99.90;;;;;;5060883;28;20079;-79
2022/03/23 08:25:43;;;;;;;77.30;54.33;;;9.40;99.90;;;;;;5060392;28;20040;-76
2022/03/23 08:28:11;;;;;;;78.70;55.03;;;9.50;99.90;;;;;;5060748;28;20505;-78
2022/03/23 08:30:37;;;;;;;80.88;54.00;;;9.60;99.90;;;;;;5060035;28;20055;-79
2022/03/23 08:33:04;;;;;;;76.97;51.60;;;9.70;99.90;;;;;;5060162;28;20055;-76
2022/03/23 08:35:30;;;;;;;77.45;54.95;;;9.80;99.90;;;;;;5077674;28;20040;-79
2022/03/23 08:37:56;;;;;;;74.82;50.47;;;9.90;99.90;;;;;;5077819;28;20097;-79
2022/03/23 08:40:22;;;;;;;75.47;51.45;;;9.90;99.90;;;;;;5094100;28;20048;-79
2022/03/23 08:42:48;;;;;;;74.20;50.38;;;10.00;99.90;;;;;;5060311;28;20117;-78
2022/03/23 08:45:15;;;;;;;71.45;48.30;;;10.10;99.90;;;;;;5082172;28;20107;-78
2022/03/23 08:47:41;;;;;;;73.72;50.38;;;10.10;99.90;;;;;;5097806;28;20048;-79
2022/03/23 08:50:09;;;;;;;66.35;43.58;;;10.20;99.90;;;;;;5079179;28;20173;-79
2022/03/23 08:52:36;;;;;;;68.88;46.95;;;10.20;99.90;;;;;;5097804;28;20055;-81
2022/03/23 08:55:03;;;;;;;63.15;45.17;;;10.30;99.90;;;;;;5079998;28;20137;-80
2022/03/23 08:57:29;;;;;;;66.88;45.50;;;10.40;99.90;;;;;;5079338;28;20457;-78
2022/03/23 08:59:55;;;;;;;65.00;43.03;;;10.50;99.90;;;;;;5092868;28;20044;-76
2022/03/23 09:02:20;;;;;;;63.50;44.25;;;10.50;99.90;;;;;;5077218;28;20439;-78
2022/03/23 09:04:46;;;;;;;58.65;41.88;;;10.60;99.90;;;;;;5059602;28;20393;-79
2022/03/23 09:07:11;;;;;;;56.63;41.80;;;10.70;99.90;;;;;;5059569;28;20443;-77
2022/03/23 09:09:37;;;;;;;53.70;38.40;;;10.70;99.90;;;;;;5059977;28;20509;-78
2022/03/23 09:12:03;;;;;;;51.90;38.22;;;10.80;99.90;;;;;;5076743;28;20040;-78
2022/03/23 09:14:29;;;;;;;56.47;39.70;;;10.90;99.90;;;;;;5079405;28;20381;-77
2022/03/23 09:16:54;;;;;;;59.50;38.20;;;11.00;99.90;;;;;;5095117;28;20136;-78
2022/03/23 09:19:20;;;;;;;53.28;38.53;;;11.10;99.90;;;;;;5096783;28;20040;-79
2022/03/23 09:21:47;;;;;;;56.08;39.05;;;11.10;99.90;;;;;;5097583;28;20067;-81
2022/03/23 09:24:13;;;;;;;61.05;42.08;;;11.30;99.90;;;;;;5079698;28;20104;-78
2022/03/23 09:26:39;;;;;;;57.70;42.20;;;11.40;99.90;;;;;;5097123;28;20036;-78
2022/03/23 09:29:06;;;;;;;60.67;41.28;;;11.40;99.90;;;;;;5096870;28;20090;-81
2022/03/23 09:31:32;;;;;;;58.78;42.35;;;11.50;99.90;;;;;;5091876;28;20036;-77
2022/03/23 09:33:57;;;;;;;60.67;42.50;;;11.70;99.90;;;;;;5076607;28;20338;-77
2022/03/23 09:39:07;;;;;;;57.90;39.80;;;11.90;99.90;;;;;;5059357;28;20048;-79
2022/03/23 09:41:34;;;;;;;58.17;42.40;;;11.90;99.90;;;;;;5076661;28;20040;-76
2022/03/23 09:44:00;;;;;;;58.47;40.10;;;12.00;99.90;;;;;;5059181;28;20315;-79
2022/03/23 09:46:26;;;;;;;57.70;37.45;;;12.00;99.90;;;;;;5059004;28;20048;-80
2022/03/23 09:48:52;;;;;;;53.25;36.70;;;12.10;99.90;;;;;;5076202;28;20044;-78
2022/03/23 09:51:20;;;;;;;61.58;40.00;;;12.20;99.90;;;;;;5076344;28;20335;-77
2022/03/23 09:53:47;;;;;;;53.28;37.47;;;12.30;99.90;;;;;;5076429;28;20127;-77
2022/03/23 09:56:13;;;;;;;53.97;38.97;;;12.40;99.90;;;;;;5076358;28;20032;-80
2022/03/23 09:58:41;;;;;;;58.67;38.30;;;12.50;99.90;;;;;;5076360;28;20098;-79
2022/03/23 10:01:26;;;;;;;58.85;37.65;;;12.60;99.90;;;;;;5075990;28;20044;-77
2022/03/23 10:04:06;;;;;;;50.85;36.90;;;12.60;99.90;;;;;;5058756;28;20044;-77
2022/03/23 10:06:53;;;;;;;54.15;37.30;;;12.70;99.90;;;;;;5076248;28;20330;-78
2022/03/23 10:09:53;;;;;;;51.67;37.22;;;12.70;99.90;;;;;;5075618;28;20123;-77
2022/03/23 10:12:56;;;;;;;55.35;35.70;;;12.80;99.90;;;;;;5076538;28;20043;-78
2022/03/23 10:16:13;;;;;;;58.60;34.50;;;13.00;99.90;;;;;;5057841;28;20086;-79
2022/03/23 10:18:54;;;;;;;47.35;34.03;;;13.10;99.90;;;;;;5075929;28;20435;-79
2022/03/23 10:21:22;;;;;;;50.22;32.83;;;13.20;99.90;;;;;;5075940;28;20047;-79
2022/03/23 10:23:59;;;;;;;47.75;31.27;;;13.30;99.90;;;;;;5075777;28;20106;-80
2022/03/23 10:26:30;;;;;;;45.45;31.38;;;13.40;99.90;;;;;;5058732;28;20044;-77
2022/03/23 10:28:57;;;;;;;49.25;31.98;;;13.50;99.90;;;;;;5076497;28;20315;-76
2022/03/23 10:31:25;;;;;;;44.42;30.83;;;13.50;99.90;;;;;;5075160;28;20036;-79
2022/03/23 10:34:08;;;;;;;44.90;32.08;;;13.50;99.90;;;;;;5075489;28;20044;-77
2022/03/23 10:36:49;;;;;;;45.80;31.25;;;13.50;99.90;;;;;;5180415;22;20076;-79
2022/03/23 10:39:16;;;;;;;48.80;30.88;;;13.60;99.90;;;;;;5055020;28;20447;-77
2022/03/23 10:41:43;;;;;;;52.60;30.42;;;13.70;99.90;;;;;;5036817;28;20041;-81
2022/03/23 10:44:16;;;;;;;46.85;29.98;;;13.70;99.90;;;;;;5038505;28;20053;-77
2022/03/23 10:46:43;;;;;;;50.17;32.67;;;13.80;99.90;;;;;;5039382;28;20059;-78
2022/03/23 10:49:10;;;;;;;46.78;30.05;;;13.80;99.90;;;;;;5056307;28;20041;-78
2022/03/23 10:51:37;;;;;;;47.63;31.77;;;14.00;99.90;;;;;;5055355;28;20032;-78
2022/03/23 10:54:21;;;;;;;34.53;21.00;;;14.10;99.90;;;;;;5055131;28;20055;-79
2022/03/23 10:56:47;;;;;;;43.88;26.40;;;14.20;99.90;;;;;;5054748;28;20044;-80
2022/03/23 10:59:15;;;;;;;43.08;25.45;;;14.20;99.90;;;;;;5037806;28;20041;-77
2022/03/23 11:02:10;;;;;;;41.22;25.30;;;14.20;99.90;;;;;;5054709;28;20049;-79
2022/03/23 11:04:46;;;;;;;41.08;24.17;;;14.40;99.90;;;;;;5037856;28;20516;-79
2022/03/23 11:07:24;;;;;;;34.30;20.02;;;14.40;99.90;;;;;;5037535;28;20048;-79
2022/03/23 11:18:10;;;;;;;38.53;22.58;;;14.70;99.90;;;;;;5054365;28;20046;-78
2022/03/23 11:20:56;;;;;;;40.58;21.92;;;14.80;99.90;;;;;;5055122;28;20053;-79
2022/03/23 11:23:30;;;;;;;32.45;19.10;;;14.80;99.90;;;;;;5037505;28;20045;-78
2022/03/23 11:26:01;;;;;;;31.90;19.77;;;14.90;99.90;;;;;;5055275;28;20048;-77
2022/03/23 11:28:28;;;;;;;36.25;23.10;;;14.90;99.90;;;;;;5037845;28;20051;-78
2022/03/23 11:30:55;;;;;;;28.48;21.20;;;14.90;99.90;;;;;;5037250;28;20135;-78
2022/03/23 11:33:24;;;;;;;33.95;19.10;;;14.80;99.90;;;;;;5054692;28;20052;-79
2022/03/23 11:35:51;;;;;;;32.55;20.77;;;14.90;99.90;;;;;;5054356;28;20063;-78
2022/03/23 11:38:22;;;;;;;33.33;21.42;;;15.00;99.90;;;;;;5054728;28;20128;-81
2022/03/23 11:40:49;;;;;;;34.25;19.83;;;15.20;99.90;;;;;;5054714;28;20049;-80
2022/03/23 11:43:17;;;;;;;34.55;22.10;;;15.30;99.90;;;;;;5054606;28;20443;-79
2022/03/23 11:45:46;;;;;;;35.22;22.10;;;15.60;99.90;;;;;;5054016;28;20035;-79
2022/03/23 11:48:16;;;;;;;36.17;21.88;;;15.80;99.90;;;;;;5054514;28;20041;-78
2022/03/23 11:51:00;;;;;;;38.00;23.48;;;16.00;99.90;;;;;;5054824;28;20041;-79
2022/03/23 11:54:17;;;;;;;30.40;22.20;;;16.10;99.90;;;;;;5037184;28;20051;-79
2022/03/23 11:56:57;;;;;;;36.10;22.80;;;16.10;99.90;;;;;;5010111;28;20064;-78
2022/03/23 11:59:29;;;;;;;37.25;22.98;;;16.10;99.90;;;;;;5054484;28;20033;-78
2022/03/23 12:01:58;;;;;;;33.25;22.05;;;16.10;99.90;;;;;;5054227;28;20095;-78
2022/03/23 12:04:25;;;;;;;34.10;22.48;;;16.10;99.90;;;;;;5036957;28;20124;-78
2022/03/23 12:07:03;;;;;;;33.70;22.60;;;16.10;99.90;;;;;;5037393;28;20045;-78
2022/03/23 12:09:41;;;;;;;35.35;22.48;;;16.10;99.90;;;;;;5034112;28;20041;-80
2022/03/23 12:12:37;;;;;;;36.00;24.50;;;16.10;99.90;;;;;;5036939;28;20447;-77
2022/03/23 12:15:22;;;;;;;35.60;23.85;;;16.40;99.90;;;;;;5053859;28;20470;-77
2022/03/23 12:17:56;;;;;;;35.50;23.63;;;16.70;99.90;;;;;;5054412;28;20052;-79
2022/03/23 12:20:33;;;;;;;34.83;24.27;;;16.70;99.90;;;;;;5036963;28;20077;-80
2022/03/23 12:23:25;;;;;;;35.53;24.27;;;16.50;99.90;;;;;;5054191;28;20122;-81
2022/03/23 12:26:03;;;;;;;37.13;26.15;;;16.70;99.90;;;;;;5046460;28;20459;-79
2022/03/23 12:28:43;;;;;;;33.95;25.85;;;16.80;99.90;;;;;;5023475;28;20079;-80
2022/03/23 12:31:14;;;;;;;40.25;27.58;;;16.80;99.90;;;;;;5056804;28;20467;-80
2022/03/23 12:34:03;;;;;;;38.58;25.85;;;16.80;99.90;;;;;;5040209;28;20085;-77
2022/03/23 12:39:23;;;;;;;35.95;25.92;;;17.00;99.90;;;;;;5040186;28;20068;-78
2022/03/23 12:41:48;;;;;;;34.40;26.10;;;17.00;99.90;;;;;;5057819;28;20450;-81
2022/03/23 12:44:14;;;;;;;40.28;27.60;;;17.00;99.90;;;;;;5057514;28;20071;-79
2022/03/23 12:46:45;;;;;;;49.05;26.85;;;17.10;99.90;;;;;;5056935;28;20460;-78
2022/03/23 12:57:50;;;;;;;35.28;25.92;;;17.40;99.90;;;;;;5039688;28;20053;-78
2022/03/23 13:00:40;;;;;;;37.50;25.98;;;17.50;99.90;;;;;;5056481;28;20471;-79
2022/03/23 13:03:06;;;;;;;34.45;25.65;;;17.60;99.90;;;;;;5047339;28;20052;-81
2022/03/23 13:05:58;;;;;;;41.67;27.15;;;17.70;99.90;;;;;;5057355;28;20041;-78
2022/03/23 13:08:30;;;;;;;33.67;25.23;;;17.80;99.90;;;;;;5057388;28;20045;-79
2022/03/23 13:11:07;;;;;;;34.67;25.75;;;18.00;99.90;;;;;;5056912;28;20426;-78
2022/03/23 13:13:36;;;;;;;34.08;27.13;;;18.10;99.90;;;;;;5057270;28;20127;-82